Time;durP1;ratioP1;P1;durP2;ratioP2;P2;SDS_P1;SDS_P2;PMS_P1;PMS_P2;Temp;Humidity;BMP_temperature;BMP_pressure;BME280_temperature;BME280_humidity;BME280_pressure;Samples;Min_cycle;Max_cycle;Signal;HPM_P1;HPM_P2
2021/10/06 00:01:06;;;;;;;4.05;3.08;;;14.40;99.90;;;;;;5039297;28;20223;-76
2021/10/06 00:03:34;;;;;;;3.35;3.15;;;14.30;99.90;;;;;;5042158;28;20234;-78
2021/10/06 00:06:01;;;;;;;2.53;2.40;;;14.40;99.90;;;;;;5033996;28;20218;-76
2021/10/06 00:08:28;;;;;;;2.55;2.45;;;14.40;99.90;;;;;;5022954;28;20277;-76
2021/10/06 00:10:55;;;;;;;3.30;3.10;;;14.40;99.90;;;;;;5029074;28;20220;-76
2021/10/06 00:13:22;;;;;;;3.00;2.80;;;14.50;99.90;;;;;;5039778;28;20634;-77
2021/10/06 00:15:50;;;;;;;3.00;2.80;;;14.50;99.90;;;;;;5022101;28;20357;-75
2021/10/06 00:18:17;;;;;;;11.90;2.80;;;14.50;99.90;;;;;;5016388;28;20573;-76
2021/10/06 00:20:44;;;;;;;2.10;2.00;;;14.50;99.90;;;;;;5029035;28;20309;-76
2021/10/06 00:23:11;;;;;;;4.07;1.75;;;14.50;99.90;;;;;;5032387;28;20605;-76
2021/10/06 00:25:38;;;;;;;1.90;1.80;;;14.50;99.90;;;;;;5029372;28;20293;-76
2021/10/06 00:28:06;;;;;;;2.20;2.00;;;14.50;99.90;;;;;;5025703;28;20231;-76
2021/10/06 00:30:33;;;;;;;1.90;1.80;;;14.40;99.90;;;;;;5024021;28;20710;-78
2021/10/06 00:33:01;;;;;;;2.45;2.25;;;14.40;99.90;;;;;;5021201;28;20227;-76
2021/10/06 00:35:28;;;;;;;2.67;2.58;;;14.40;99.90;;;;;;5021620;28;20743;-76
2021/10/06 00:37:55;;;;;;;2.80;2.60;;;14.40;99.90;;;;;;5028747;28;20701;-78
2021/10/06 00:40:22;;;;;;;2.80;2.60;;;14.50;99.90;;;;;;5034153;28;20226;-80
2021/10/06 00:42:49;;;;;;;3.22;2.92;;;14.40;99.90;;;;;;5035117;28;20235;-79
2021/10/06 00:45:16;;;;;;;3.03;2.60;;;14.40;99.90;;;;;;5022701;28;20739;-80
2021/10/06 00:47:43;;;;;;;3.55;3.25;;;14.50;99.90;;;;;;5022990;28;20709;-76
2021/10/06 00:50:12;;;;;;;3.30;3.10;;;14.50;99.90;;;;;;5022634;28;20223;-77
2021/10/06 00:52:39;;;;;;;3.20;2.90;;;14.50;99.90;;;;;;5038621;28;20667;-78
2021/10/06 00:55:07;;;;;;;11.82;3.67;;;14.50;99.90;;;;;;5032152;28;20582;-79
2021/10/06 00:57:34;;;;;;;3.30;3.08;;;14.50;99.90;;;;;;5022879;28;20231;-75
2021/10/06 01:00:01;;;;;;;3.80;3.10;;;14.40;99.90;;;;;;5027978;28;20266;-75
2021/10/06 01:02:28;;;;;;;2.90;2.70;;;14.30;99.90;;;;;;5029451;28;20271;-76
2021/10/06 01:04:55;;;;;;;2.63;2.42;;;14.30;99.90;;;;;;5023845;28;20245;-76
2021/10/06 01:07:23;;;;;;;2.38;2.28;;;14.30;99.90;;;;;;5027511;28;20223;-75
2021/10/06 01:09:52;;;;;;;2.03;1.92;;;14.30;99.90;;;;;;5027212;28;20313;-76
2021/10/06 01:12:19;;;;;;;2.00;1.80;;;14.30;99.90;;;;;;5027487;28;20666;-77
2021/10/06 01:14:47;;;;;;;2.10;2.00;;;14.40;99.90;;;;;;5027311;28;20293;-76
2021/10/06 01:17:14;;;;;;;105.35;4.35;;;14.40;99.90;;;;;;5025993;28;20272;-78
2021/10/06 01:19:42;;;;;;;1.75;1.65;;;14.40;99.90;;;;;;5033139;28;20301;-76
2021/10/06 01:22:11;;;;;;;1.75;1.60;;;14.30;99.90;;;;;;5043630;28;20222;-76
2021/10/06 01:24:38;;;;;;;1.33;1.33;;;14.20;99.90;;;;;;5023510;28;20230;-76
2021/10/06 01:27:05;;;;;;;1.90;1.35;;;14.10;99.90;;;;;;5050419;28;20641;-77
2021/10/06 01:29:32;;;;;;;1.10;1.10;;;14.00;99.90;;;;;;5049454;28;20276;-75
2021/10/06 01:31:59;;;;;;;1.42;1.38;;;14.00;99.90;;;;;;5029364;28;20219;-80
2021/10/06 01:34:26;;;;;;;9.05;1.42;;;14.10;99.90;;;;;;5028453;28;20223;-76
2021/10/06 01:36:55;;;;;;;36.80;2.08;;;14.10;99.90;;;;;;5027183;28;20223;-74
2021/10/06 01:39:24;;;;;;;86.43;2.78;;;14.00;99.90;;;;;;5028938;28;20771;-78
2021/10/06 01:41:51;;;;;;;12.82;1.17;;;13.90;99.90;;;;;;5032860;28;20678;-77
2021/10/06 01:44:19;;;;;;;0.70;0.70;;;13.80;99.90;;;;;;5026612;28;20272;-76
2021/10/06 01:46:47;;;;;;;3.08;0.90;;;13.80;99.90;;;;;;5042403;28;20226;-76
2021/10/06 01:49:15;;;;;;;0.60;0.60;;;13.80;99.90;;;;;;5047195;28;20759;-76
2021/10/06 01:51:42;;;;;;;5.35;1.00;;;13.80;99.90;;;;;;5046813;28;20231;-76
2021/10/06 01:54:10;;;;;;;0.90;0.90;;;13.80;99.90;;;;;;5047846;28;20276;-77
2021/10/06 01:56:39;;;;;;;0.80;0.80;;;13.80;99.90;;;;;;5047745;28;20222;-76
2021/10/06 01:59:06;;;;;;;0.85;0.80;;;13.80;99.90;;;;;;5047017;28;20281;-76
2021/10/06 02:01:33;;;;;;;23.50;1.30;;;13.80;99.90;;;;;;5045719;28;20230;-81
2021/10/06 02:04:00;;;;;;;0.70;0.70;;;13.80;99.90;;;;;;5038513;28;20222;-78
2021/10/06 02:06:27;;;;;;;0.80;0.80;;;13.80;99.90;;;;;;5043605;28;20214;-76
2021/10/06 02:08:54;;;;;;;0.80;0.80;;;13.90;99.90;;;;;;5033868;28;20254;-79
2021/10/06 02:11:21;;;;;;;0.88;0.88;;;13.90;99.90;;;;;;5041839;28;20276;-78
2021/10/06 02:13:49;;;;;;;0.88;0.88;;;13.90;99.90;;;;;;5042258;28;20256;-75
2021/10/06 02:16:16;;;;;;;0.90;0.90;;;13.90;99.90;;;;;;5033639;28;20638;-76
2021/10/06 02:18:43;;;;;;;0.88;0.88;;;14.00;99.90;;;;;;5023029;28;21265;-76
2021/10/06 02:21:10;;;;;;;1.25;1.25;;;14.00;99.90;;;;;;5041373;28;20579;-77
2021/10/06 02:23:37;;;;;;;1.40;1.40;;;14.10;99.90;;;;;;5016309;28;20222;-74
2021/10/06 02:26:04;;;;;;;1.58;1.48;;;14.10;99.90;;;;;;5037944;28;20222;-76
2021/10/06 02:28:31;;;;;;;1.30;1.30;;;14.10;99.90;;;;;;5024669;28;20231;-75
2021/10/06 02:31:00;;;;;;;1.55;1.45;;;14.10;99.90;;;;;;5025673;28;20220;-76
2021/10/06 02:33:27;;;;;;;5.38;1.40;;;14.10;99.90;;;;;;5027026;28;20246;-75
2021/10/06 02:35:54;;;;;;;1.20;1.20;;;14.10;99.90;;;;;;5022569;28;20269;-76
2021/10/06 02:38:21;;;;;;;1.20;1.20;;;14.10;99.90;;;;;;5022638;28;20803;-75
2021/10/06 02:40:48;;;;;;;3.97;1.50;;;14.00;99.90;;;;;;5022334;28;20219;-75
2021/10/06 02:43:15;;;;;;;1.80;1.08;;;13.90;99.90;;;;;;5018846;28;20228;-79
2021/10/06 02:45:42;;;;;;;2.10;1.10;;;13.90;99.90;;;;;;5023023;28;20277;-75
2021/10/06 02:48:10;;;;;;;1.10;1.10;;;13.80;99.90;;;;;;5023541;28;20301;-77
2021/10/06 02:50:38;;;;;;;1.38;1.30;;;13.80;99.90;;;;;;5001825;28;20264;-77
2021/10/06 02:53:05;;;;;;;1.48;1.15;;;13.80;99.90;;;;;;5026494;28;20238;-76
2021/10/06 02:55:32;;;;;;;13.98;1.58;;;13.80;99.90;;;;;;5024305;28;22519;-74
2021/10/06 02:57:59;;;;;;;10.65;1.75;;;13.80;99.90;;;;;;5031847;28;20656;-76
2021/10/06 03:00:26;;;;;;;5.22;1.55;;;13.80;99.90;;;;;;5033199;28;20241;-77
2021/10/06 03:02:53;;;;;;;1.40;1.40;;;13.70;99.90;;;;;;4984553;22;20297;-75
2021/10/06 03:05:21;;;;;;;4.85;1.30;;;13.70;99.90;;;;;;4973421;28;20229;-76
2021/10/06 03:07:48;;;;;;;60.15;2.67;;;13.70;99.90;;;;;;4972554;28;20222;-76
2021/10/06 03:10:16;;;;;;;3.13;1.20;;;13.60;99.90;;;;;;4960462;28;20272;-76
2021/10/06 03:12:43;;;;;;;1.30;1.30;;;13.60;99.90;;;;;;4957122;28;20237;-76
2021/10/06 03:15:12;;;;;;;2.15;1.40;;;13.60;99.90;;;;;;4944515;28;20638;-76
2021/10/06 03:17:39;;;;;;;27.92;1.80;;;13.60;99.90;;;;;;4939884;28;20230;-78
2021/10/06 03:20:08;;;;;;;13.10;1.70;;;13.60;99.90;;;;;;4939919;28;20740;-77
2021/10/06 03:22:37;;;;;;;1.40;1.30;;;13.60;99.90;;;;;;4944297;28;20284;-78
2021/10/06 03:25:05;;;;;;;1.90;1.42;;;13.60;99.90;;;;;;4938750;28;20235;-76
2021/10/06 03:27:34;;;;;;;1.48;1.38;;;13.50;99.90;;;;;;4941788;28;20288;-77
2021/10/06 03:30:01;;;;;;;1.60;1.50;;;13.50;99.90;;;;;;4942048;28;20287;-76
2021/10/06 03:32:28;;;;;;;2.00;1.63;;;13.50;99.90;;;;;;4945841;28;20272;-76
2021/10/06 03:34:55;;;;;;;20.58;2.08;;;13.50;99.90;;;;;;4941841;28;20268;-76
2021/10/06 03:37:22;;;;;;;4.60;1.17;;;13.50;99.90;;;;;;4952278;28;20215;-77
2021/10/06 03:39:50;;;;;;;8.75;1.73;;;13.50;99.90;;;;;;4947908;28;20230;-76
2021/10/06 03:42:18;;;;;;;1.30;1.20;;;13.40;99.90;;;;;;4945923;28;20280;-76
2021/10/06 03:44:45;;;;;;;9.02;1.77;;;13.40;99.90;;;;;;4941693;28;20319;-77
2021/10/06 03:47:12;;;;;;;2.17;1.13;;;13.40;99.90;;;;;;4943169;28;20226;-77
2021/10/06 03:49:39;;;;;;;1.10;1.10;;;13.40;99.90;;;;;;4936157;28;20231;-78
2021/10/06 03:52:06;;;;;;;1.35;1.35;;;13.40;99.90;;;;;;4943490;28;20233;-77
2021/10/06 03:54:33;;;;;;;2.22;1.42;;;13.50;99.90;;;;;;4941771;28;20276;-78
2021/10/06 03:57:01;;;;;;;1.30;1.30;;;13.40;99.90;;;;;;4941972;28;20223;-76
2021/10/06 03:59:28;;;;;;;1.30;1.30;;;13.50;99.90;;;;;;4938794;28;20227;-77
2021/10/06 04:01:56;;;;;;;1.17;1.17;;;13.40;99.90;;;;;;4940500;28;20225;-77
2021/10/06 04:04:23;;;;;;;1.15;1.15;;;13.50;99.90;;;;;;4954095;28;20220;-77
2021/10/06 04:06:50;;;;;;;1.10;1.10;;;13.50;99.90;;;;;;4947602;28;20226;-76
2021/10/06 04:09:17;;;;;;;1.30;1.30;;;13.50;99.90;;;;;;4940102;28;20288;-76
2021/10/06 04:11:44;;;;;;;2.33;1.20;;;13.50;99.90;;;;;;4941239;28;20241;-76
2021/10/06 04:14:12;;;;;;;1.42;1.40;;;13.50;99.90;;;;;;4952137;28;20720;-77
2021/10/06 04:16:39;;;;;;;11.07;1.92;;;13.50;99.90;;;;;;4944177;28;20229;-77
2021/10/06 04:19:06;;;;;;;35.63;2.70;;;13.50;99.90;;;;;;4942036;28;20226;-76
2021/10/06 04:21:33;;;;;;;23.35;2.08;;;13.40;99.90;;;;;;4942667;28;20226;-77
2021/10/06 04:24:00;;;;;;;43.33;3.03;;;13.30;99.90;;;;;;4940554;28;20226;-76
2021/10/06 04:26:28;;;;;;;58.65;3.22;;;13.30;99.90;;;;;;4937668;28;20225;-76
2021/10/06 04:28:55;;;;;;;1.67;1.58;;;13.20;99.90;;;;;;4940727;28;20296;-75
2021/10/06 04:31:23;;;;;;;5.10;1.90;;;13.20;99.90;;;;;;4942010;28;20218;-76
2021/10/06 04:33:50;;;;;;;4.35;1.77;;;13.10;99.90;;;;;;4941256;28;20226;-77
2021/10/06 04:36:18;;;;;;;52.55;3.15;;;13.10;99.90;;;;;;4944774;28;20214;-76
2021/10/06 04:38:45;;;;;;;2.00;1.40;;;13.20;99.90;;;;;;4938752;28;20218;-76
2021/10/06 04:41:12;;;;;;;31.13;2.70;;;13.20;99.90;;;;;;4939866;28;20720;-77
2021/10/06 04:43:39;;;;;;;1.50;1.40;;;13.10;99.90;;;;;;4942166;28;20264;-77
2021/10/06 04:46:06;;;;;;;1.35;1.25;;;13.10;99.90;;;;;;4940470;28;20637;-76
2021/10/06 04:48:35;;;;;;;1.23;1.13;;;13.10;99.90;;;;;;4939494;28;20257;-76
2021/10/06 04:51:02;;;;;;;1.00;1.00;;;13.20;99.90;;;;;;4941217;28;20218;-76
2021/10/06 04:53:29;;;;;;;1.10;1.10;;;13.20;99.90;;;;;;4938053;28;20230;-76
2021/10/06 04:55:56;;;;;;;0.93;0.93;;;13.10;99.90;;;;;;4939664;28;20226;-77
2021/10/06 04:58:23;;;;;;;29.42;2.28;;;13.10;99.90;;;;;;4942048;28;20870;-76
2021/10/06 05:00:50;;;;;;;63.15;2.78;;;13.10;99.90;;;;;;4942686;28;20218;-77
2021/10/06 05:03:17;;;;;;;225.07;6.70;;;13.00;99.90;;;;;;4938452;28;20276;-76
2021/10/06 05:05:45;;;;;;;202.40;6.53;;;13.00;99.90;;;;;;4940128;28;20573;-75
2021/10/06 05:08:12;;;;;;;3.42;1.55;;;12.90;99.90;;;;;;4948730;28;20223;-76
2021/10/06 05:10:40;;;;;;;1.15;1.15;;;12.80;99.90;;;;;;4936592;28;20226;-76
2021/10/06 05:13:07;;;;;;;1.10;1.10;;;12.70;99.90;;;;;;4936170;28;20222;-76
2021/10/06 05:15:34;;;;;;;1.00;1.00;;;12.70;99.90;;;;;;4945395;28;20324;-76
2021/10/06 05:18:01;;;;;;;142.45;4.60;;;12.60;99.90;;;;;;4936469;28;20229;-76
2021/10/06 05:20:28;;;;;;;232.80;6.40;;;12.60;99.90;;;;;;4939910;28;20238;-77
2021/10/06 05:22:57;;;;;;;125.78;4.68;;;12.60;99.90;;;;;;4944124;28;20299;-76
2021/10/06 05:25:24;;;;;;;204.63;5.25;;;12.60;99.90;;;;;;4941340;28;20308;-76
2021/10/06 05:27:52;;;;;;;185.32;4.43;;;12.60;99.90;;;;;;4941175;28;20287;-76
2021/10/06 05:30:19;;;;;;;30.60;2.28;;;12.60;99.90;;;;;;4943181;28;20303;-76
2021/10/06 05:32:49;;;;;;;5.88;1.02;;;12.60;99.90;;;;;;4936046;28;20284;-76
2021/10/06 05:35:16;;;;;;;22.98;1.52;;;12.60;99.90;;;;;;4934234;28;20272;-76
2021/10/06 05:37:43;;;;;;;209.00;6.70;;;12.70;99.90;;;;;;4940461;28;20234;-76
2021/10/06 05:40:14;;;;;;;225.48;7.25;;;12.60;99.90;;;;;;4939847;28;20650;-76
2021/10/06 05:42:41;;;;;;;594.08;19.00;;;12.50;99.90;;;;;;4942342;28;20234;-77
2021/10/06 05:45:09;;;;;;;106.30;5.50;;;12.40;99.90;;;;;;4925020;28;20227;-76
2021/10/06 05:47:36;;;;;;;29.00;2.13;;;12.30;99.90;;;;;;4948565;28;20259;-76
2021/10/06 05:50:04;;;;;;;5.53;1.10;;;12.20;99.90;;;;;;4936457;28;20230;-75
2021/10/06 05:52:33;;;;;;;1.23;0.95;;;12.10;99.90;;;;;;4929316;28;20248;-74
2021/10/06 05:55:00;;;;;;;0.93;0.93;;;12.00;99.90;;;;;;4937026;28;20771;-76
2021/10/06 05:57:29;;;;;;;0.70;0.70;;;12.00;99.90;;;;;;4939059;28;20287;-76
2021/10/06 05:59:56;;;;;;;1.10;1.00;;;11.90;99.90;;;;;;4918541;28;20237;-76
2021/10/06 06:02:23;;;;;;;0.85;0.85;;;11.80;99.90;;;;;;4941544;28;20289;-77
2021/10/06 06:04:50;;;;;;;1.42;0.80;;;11.80;99.90;;;;;;4932417;28;20251;-75
2021/10/06 06:07:17;;;;;;;0.80;0.80;;;11.80;99.90;;;;;;4941624;28;20238;-76
2021/10/06 06:09:44;;;;;;;1.65;0.88;;;11.80;99.90;;;;;;4932115;28;20803;-75
2021/10/06 06:12:11;;;;;;;0.90;0.90;;;11.80;99.90;;;;;;4936381;28;20222;-77
2021/10/06 06:14:41;;;;;;;1.15;1.05;;;11.70;99.90;;;;;;4925658;28;20581;-76
2021/10/06 06:17:10;;;;;;;1.45;1.10;;;11.80;99.90;;;;;;4922981;28;20893;-75
2021/10/06 06:19:37;;;;;;;0.90;0.90;;;11.70;99.90;;;;;;4940868;28;20230;-76
2021/10/06 06:22:04;;;;;;;0.80;0.80;;;11.70;99.90;;;;;;4936773;28;20774;-76
2021/10/06 06:24:31;;;;;;;0.70;0.70;;;11.70;99.90;;;;;;4937668;28;20271;-75
2021/10/06 06:26:58;;;;;;;1.27;0.90;;;11.80;99.90;;;;;;4935460;28;20233;-76
2021/10/06 06:29:25;;;;;;;0.90;0.90;;;11.70;99.90;;;;;;4939756;28;20280;-76
2021/10/06 06:31:54;;;;;;;0.85;0.85;;;11.80;99.90;;;;;;4940113;28;20640;-74
2021/10/06 06:34:22;;;;;;;1.23;0.93;;;11.80;99.90;;;;;;4946572;28;20476;-74
2021/10/06 06:36:50;;;;;;;0.80;0.80;;;11.80;99.90;;;;;;4940309;28;21166;-75
2021/10/06 06:39:17;;;;;;;0.90;0.90;;;11.80;99.90;;;;;;4942218;28;20736;-76
2021/10/06 06:41:44;;;;;;;1.00;1.00;;;11.80;99.90;;;;;;4939744;28;20279;-75
2021/10/06 06:44:11;;;;;;;0.98;0.98;;;11.80;99.90;;;;;;4940647;28;20226;-75
2021/10/06 06:46:39;;;;;;;0.98;0.98;;;11.80;99.90;;;;;;4933525;28;20218;-76
2021/10/06 06:49:08;;;;;;;1.20;0.90;;;11.80;99.90;;;;;;4932473;28;20248;-76
2021/10/06 06:51:35;;;;;;;0.80;0.80;;;11.80;99.90;;;;;;4929534;28;20284;-76
2021/10/06 06:54:03;;;;;;;0.90;0.90;;;11.70;99.90;;;;;;4936291;28;20248;-75
2021/10/06 06:56:31;;;;;;;0.90;0.90;;;11.70;99.90;;;;;;4926589;28;20228;-75
2021/10/06 06:58:58;;;;;;;0.90;0.90;;;11.70;99.90;;;;;;4934049;28;20348;-76
2021/10/06 07:01:25;;;;;;;0.85;0.85;;;11.70;99.90;;;;;;4934636;28;20292;-74
2021/10/06 07:03:52;;;;;;;3.88;1.30;;;11.60;99.90;;;;;;4930166;28;20278;-76
2021/10/06 07:06:20;;;;;;;2.00;1.20;;;11.60;99.90;;;;;;4929676;28;20229;-75
2021/10/06 07:08:48;;;;;;;1.35;1.25;;;11.50;99.90;;;;;;4928842;28;21035;-76
2021/10/06 07:11:16;;;;;;;1.90;1.10;;;11.50;99.90;;;;;;4929365;28;20230;-76
2021/10/06 07:13:43;;;;;;;3.38;1.23;;;11.50;99.90;;;;;;4931844;28;20237;-76
2021/10/06 07:16:10;;;;;;;9.10;1.90;;;11.70;99.90;;;;;;4927974;28;20280;-77
2021/10/06 07:18:37;;;;;;;1.45;1.20;;;11.70;99.90;;;;;;4928173;28;20651;-76
2021/10/06 07:21:04;;;;;;;1.30;1.20;;;11.70;99.90;;;;;;4927273;28;20512;-75
2021/10/06 07:23:32;;;;;;;1.52;1.20;;;11.60;99.90;;;;;;4937050;28;20283;-76
2021/10/06 07:25:59;;;;;;;1.25;1.15;;;11.60;99.90;;;;;;4935507;28;20238;-76
2021/10/06 07:28:26;;;;;;;1.35;1.00;;;11.60;99.90;;;;;;4931925;28;20226;-76
2021/10/06 07:30:54;;;;;;;2.35;1.13;;;11.70;99.90;;;;;;4931293;28;20226;-76
2021/10/06 07:33:21;;;;;;;0.95;0.95;;;11.80;99.90;;;;;;4934344;28;20228;-74
2021/10/06 07:35:48;;;;;;;0.98;0.98;;;12.00;99.90;;;;;;4935755;28;20230;-76
2021/10/06 07:38:16;;;;;;;1.08;1.08;;;12.30;99.90;;;;;;4931019;28;21672;-76
2021/10/06 07:40:45;;;;;;;1.40;1.30;;;12.50;99.90;;;;;;4932623;28;20230;-75
2021/10/06 07:43:12;;;;;;;0.88;0.88;;;12.60;99.90;;;;;;4932129;28;20806;-76
2021/10/06 07:45:39;;;;;;;1.10;1.00;;;12.80;99.90;;;;;;4934844;28;20263;-76
2021/10/06 07:48:06;;;;;;;1.00;1.00;;;12.80;99.90;;;;;;4936644;28;20732;-74
2021/10/06 07:50:33;;;;;;;1.10;1.10;;;12.70;99.90;;;;;;4933672;28;20222;-75
2021/10/06 07:53:00;;;;;;;2.83;2.50;;;12.70;99.90;;;;;;4931023;28;20677;-77
2021/10/06 07:55:27;;;;;;;2.10;1.90;;;12.70;99.90;;;;;;4936847;28;20280;-75
2021/10/06 07:57:56;;;;;;;2.42;2.28;;;12.70;99.90;;;;;;4933680;28;20475;-74
2021/10/06 08:00:24;;;;;;;1.48;1.38;;;12.70;99.90;;;;;;4930971;28;20304;-76
2021/10/06 08:02:51;;;;;;;1.30;1.20;;;13.00;99.90;;;;;;4926440;28;20234;-74
2021/10/06 08:05:18;;;;;;;1.20;1.10;;;13.20;99.90;;;;;;4928996;28;20307;-74
2021/10/06 08:07:45;;;;;;;1.52;1.17;;;13.30;99.90;;;;;;4931110;28;20320;-75
2021/10/06 08:10:12;;;;;;;1.13;1.13;;;13.20;99.90;;;;;;4931994;28;20230;-76
2021/10/06 08:12:39;;;;;;;0.90;0.90;;;13.00;99.90;;;;;;4929598;28;20268;-76
2021/10/06 08:15:09;;;;;;;2.45;0.85;;;12.80;99.90;;;;;;4931644;28;20225;-76
2021/10/06 08:17:36;;;;;;;1.55;1.02;;;12.60;99.90;;;;;;4930508;28;20238;-76
2021/10/06 08:20:05;;;;;;;0.88;0.88;;;12.60;99.90;;;;;;4930042;28;20718;-76
2021/10/06 08:22:32;;;;;;;0.90;0.90;;;12.50;99.90;;;;;;4928268;28;20260;-76
2021/10/06 08:24:59;;;;;;;1.10;1.10;;;12.40;99.90;;;;;;4932178;28;20229;-76
2021/10/06 08:27:26;;;;;;;1.20;1.20;;;12.30;99.90;;;;;;4931577;28;20218;-75
2021/10/06 08:29:53;;;;;;;1.30;1.20;;;12.30;99.90;;;;;;4929174;28;20304;-75
2021/10/06 08:32:22;;;;;;;1.40;1.30;;;12.20;99.90;;;;;;4930180;28;20305;-74
2021/10/06 08:34:49;;;;;;;2.80;1.15;;;12.20;99.90;;;;;;4927146;28;20536;-76
2021/10/06 08:37:16;;;;;;;1.17;1.17;;;12.20;99.90;;;;;;4928098;28;20683;-75
2021/10/06 08:39:44;;;;;;;0.85;0.85;;;12.30;99.90;;;;;;4929910;28;20888;-75
2021/10/06 08:42:11;;;;;;;1.20;1.10;;;12.30;99.90;;;;;;4932173;28;20229;-75
2021/10/06 08:44:39;;;;;;;0.70;0.70;;;12.30;99.90;;;;;;4920615;28;20741;-76
2021/10/06 08:47:07;;;;;;;1.65;0.85;;;12.30;99.90;;;;;;4930616;28;20238;-74
2021/10/06 08:49:37;;;;;;;0.82;0.80;;;12.50;99.90;;;;;;4929130;28;22016;-76
2021/10/06 08:52:05;;;;;;;0.90;0.90;;;12.50;99.90;;;;;;4929088;28;20226;-75
2021/10/06 08:54:33;;;;;;;0.98;0.98;;;12.50;99.90;;;;;;4929120;28;20716;-76
2021/10/06 08:57:00;;;;;;;0.73;0.73;;;12.50;99.90;;;;;;4928618;28;20497;-75
2021/10/06 08:59:27;;;;;;;0.90;0.90;;;12.50;99.90;;;;;;4933666;28;22157;-76
2021/10/06 09:01:54;;;;;;;0.90;0.90;;;12.50;99.90;;;;;;4930365;28;20233;-75
2021/10/06 09:04:32;;;;;;;1.02;1.02;;;12.50;99.90;;;;;;4942222;23;20641;-77
2021/10/06 09:07:05;;;;;;;0.90;0.90;;;12.40;99.90;;;;;;4946025;28;21793;-75
2021/10/06 09:09:33;;;;;;;0.80;0.80;;;12.30;99.90;;;;;;4952255;28;20244;-77
2021/10/06 09:12:02;;;;;;;0.90;0.90;;;12.20;99.90;;;;;;4946050;28;20810;-73
2021/10/06 09:14:31;;;;;;;1.10;1.10;;;12.20;99.90;;;;;;4944623;28;20225;-79
2021/10/06 09:17:06;;;;;;;1.33;1.30;;;12.20;99.90;;;;;;4934263;28;20305;-78
2021/10/06 09:19:41;;;;;;;1.27;1.27;;;12.20;99.90;;;;;;4933715;28;20736;-77
2021/10/06 09:22:18;;;;;;;0.88;0.88;;;12.20;99.90;;;;;;4937290;28;20234;-76
2021/10/06 09:24:50;;;;;;;0.90;0.90;;;12.20;99.90;;;;;;4930681;28;20238;-74
2021/10/06 09:27:21;;;;;;;0.93;0.93;;;12.20;99.90;;;;;;4930939;28;20230;-77
2021/10/06 09:29:49;;;;;;;0.82;0.82;;;12.30;99.90;;;;;;4930310;28;20230;-73
2021/10/06 09:32:36;;;;;;;3.15;0.90;;;12.30;99.90;;;;;;4932373;28;20226;-76
2021/10/06 09:35:07;;;;;;;0.93;0.93;;;12.20;99.90;;;;;;4933966;28;21046;-75
2021/10/06 09:37:37;;;;;;;0.90;0.90;;;12.20;99.90;;;;;;4933529;28;20229;-78
2021/10/06 09:40:07;;;;;;;1.00;1.00;;;12.20;99.90;;;;;;4929006;28;20308;-77
2021/10/06 09:42:45;;;;;;;0.90;0.90;;;12.10;99.90;;;;;;4930549;28;20222;-76
2021/10/06 09:45:20;;;;;;;0.93;0.93;;;12.10;99.90;;;;;;4922711;28;20226;-74
2021/10/06 09:48:05;;;;;;;0.80;0.80;;;12.10;99.90;;;;;;4931564;28;20227;-76
2021/10/06 09:50:34;;;;;;;1.35;1.25;;;12.10;99.90;;;;;;4930561;28;20226;-76
2021/10/06 09:53:12;;;;;;;1.70;1.60;;;12.10;99.90;;;;;;4962054;28;20564;-73
2021/10/06 09:55:40;;;;;;;1.95;1.83;;;12.00;99.90;;;;;;4936364;28;20226;-74
2021/10/06 09:58:07;;;;;;;1.85;1.75;;;12.00;99.90;;;;;;4933409;28;20237;-74
2021/10/06 10:00:35;;;;;;;1.60;1.50;;;12.00;99.90;;;;;;4933753;28;20237;-78
2021/10/06 10:03:04;;;;;;;1.65;1.55;;;11.90;99.90;;;;;;4936641;28;20223;-75
2021/10/06 10:05:32;;;;;;;1.77;1.67;;;11.90;99.90;;;;;;4936794;28;20223;-75
2021/10/06 10:07:59;;;;;;;1.83;1.73;;;12.00;99.90;;;;;;4930594;28;20229;-76
2021/10/06 10:10:28;;;;;;;2.58;1.80;;;12.10;99.90;;;;;;4934614;28;20234;-77
2021/10/06 10:12:55;;;;;;;2.03;1.85;;;12.00;99.90;;;;;;4934108;28;20305;-73
2021/10/06 10:15:23;;;;;;;2.85;2.55;;;12.00;99.90;;;;;;4940287;28;20217;-74
2021/10/06 10:17:54;;;;;;;1.42;1.33;;;11.80;99.90;;;;;;4931872;28;20634;-80
2021/10/06 10:20:23;;;;;;;2.22;2.05;;;11.80;99.90;;;;;;4931681;28;20229;-79
2021/10/06 10:22:52;;;;;;;4.75;2.70;;;11.80;99.90;;;;;;4929266;28;20236;-77
2021/10/06 10:25:26;;;;;;;6.65;5.07;;;11.80;99.90;;;;;;4957571;28;20228;-75
2021/10/06 10:28:00;;;;;;;9.88;7.72;;;11.80;99.90;;;;;;4970583;28;20246;-76
2021/10/06 10:30:29;;;;;;;10.23;7.72;;;12.00;99.90;;;;;;4936840;28;20336;-74
2021/10/06 10:32:56;;;;;;;10.30;7.65;;;12.10;99.90;;;;;;4933570;28;20349;-73
2021/10/06 10:35:34;;;;;;;21.92;16.38;;;12.30;99.90;;;;;;4958085;28;20288;-74
2021/10/06 10:38:18;;;;;;;35.88;24.27;;;12.70;99.90;;;;;;4964494;28;20223;-74
2021/10/06 10:40:51;;;;;;;34.85;24.80;;;13.10;99.90;;;;;;4933451;28;21956;-76
2021/10/06 10:43:22;;;;;;;29.15;20.55;;;13.30;99.90;;;;;;4922769;28;20233;-80
2021/10/06 10:46:06;;;;;;;29.38;20.58;;;13.50;99.90;;;;;;4934477;28;20267;-77
2021/10/06 10:48:40;;;;;;;18.48;14.30;;;13.70;99.90;;;;;;4930688;28;20308;-75
2021/10/06 10:51:12;;;;;;;17.20;12.30;;;13.50;99.90;;;;;;4933445;28;20245;-72
2021/10/06 10:54:02;;;;;;;15.18;11.13;;;13.40;99.90;;;;;;4925084;28;20329;-77
2021/10/06 10:56:49;;;;;;;8.00;6.47;;;13.40;99.90;;;;;;4929775;28;20229;-72
2021/10/06 10:59:19;;;;;;;9.90;7.07;;;13.20;99.90;;;;;;4932807;28;21721;-73
2021/10/06 11:01:52;;;;;;;5.68;5.07;;;13.20;99.90;;;;;;4933477;28;20229;-75
2021/10/06 11:04:23;;;;;;;8.57;4.97;;;13.20;99.90;;;;;;4934331;28;20240;-77
2021/10/06 11:06:54;;;;;;;3.22;2.92;;;13.00;99.90;;;;;;4935765;28;20226;-74
2021/10/06 11:09:49;;;;;;;4.38;3.92;;;13.10;99.90;;;;;;4934850;28;20222;-78
2021/10/06 11:12:42;;;;;;;6.10;4.60;;;13.30;99.90;;;;;;4930235;28;20234;-75
2021/10/06 11:15:26;;;;;;;4.78;4.18;;;13.60;99.90;;;;;;4930060;28;20227;-75
2021/10/06 11:18:28;;;;;;;4.85;4.22;;;13.90;99.90;;;;;;4972005;28;20219;-75
2021/10/06 11:21:05;;;;;;;3.90;3.53;;;14.20;99.90;;;;;;4934060;28;20614;-79
2021/10/06 11:23:42;;;;;;;3.35;3.03;;;14.40;99.90;;;;;;4921720;28;20231;-76
2021/10/06 11:26:11;;;;;;;5.18;2.80;;;14.50;99.90;;;;;;4936470;28;20254;-75
2021/10/06 11:28:39;;;;;;;3.28;2.20;;;14.70;99.90;;;;;;4922116;28;20230;-74
2021/10/06 11:31:08;;;;;;;2.70;2.50;;;14.90;99.90;;;;;;4935988;28;20684;-76
2021/10/06 11:33:36;;;;;;;2.55;2.35;;;15.20;99.90;;;;;;4931417;28;20265;-74
2021/10/06 11:36:12;;;;;;;3.03;2.47;;;15.50;99.90;;;;;;4935696;28;20234;-76
2021/10/06 11:38:41;;;;;;;2.70;2.10;;;15.70;99.90;;;;;;4935697;28;20295;-74
2021/10/06 11:41:09;;;;;;;1.77;1.67;;;15.90;99.90;;;;;;4916119;28;20231;-74
2021/10/06 11:43:43;;;;;;;1.00;1.00;;;16.00;99.90;;;;;;4931092;28;20234;-79
2021/10/06 11:46:18;;;;;;;1.63;1.00;;;16.20;99.90;;;;;;4933444;28;20232;-76
2021/10/06 11:48:48;;;;;;;0.80;0.80;;;16.40;99.90;;;;;;4930830;28;20229;-75
2021/10/06 11:51:16;;;;;;;0.93;0.93;;;16.40;99.90;;;;;;4930251;28;20234;-76
2021/10/06 11:53:47;;;;;;;0.77;0.77;;;16.30;99.90;;;;;;4935627;28;20241;-75
2021/10/06 11:56:28;;;;;;;1.10;1.00;;;16.40;99.90;;;;;;4930698;28;20221;-76
2021/10/06 11:58:56;;;;;;;1.00;1.00;;;16.40;99.90;;;;;;4931635;28;20283;-72
2021/10/06 12:01:28;;;;;;;0.85;0.82;;;16.40;99.90;;;;;;4940680;28;20233;-72
2021/10/06 12:03:55;;;;;;;0.95;0.77;;;16.20;99.90;;;;;;4933810;28;20226;-73
2021/10/06 12:06:23;;;;;;;0.90;0.90;;;15.90;99.90;;;;;;4930335;28;20223;-74
2021/10/06 12:08:51;;;;;;;1.27;0.90;;;16.00;99.90;;;;;;4927949;28;20246;-74
2021/10/06 12:11:19;;;;;;;0.70;0.70;;;16.40;99.90;;;;;;4931225;28;20225;-73
2021/10/06 12:13:46;;;;;;;0.70;0.70;;;16.40;99.90;;;;;;4980316;28;20326;-75
2021/10/06 12:16:26;;;;;;;1.10;0.90;;;16.30;99.90;;;;;;4956741;28;20275;-75
2021/10/06 12:18:59;;;;;;;0.77;0.77;;;16.30;99.90;;;;;;4933432;28;20234;-73
2021/10/06 12:21:26;;;;;;;0.80;0.80;;;16.00;99.90;;;;;;4932740;28;20219;-74
2021/10/06 12:23:54;;;;;;;0.70;0.70;;;15.70;99.90;;;;;;4926175;28;20233;-72
2021/10/06 12:26:23;;;;;;;0.80;0.80;;;15.80;99.90;;;;;;4936568;28;20331;-75
2021/10/06 12:28:54;;;;;;;0.73;0.73;;;15.90;99.90;;;;;;4935950;28;20667;-73
2021/10/06 12:31:24;;;;;;;1.73;1.00;;;15.80;99.90;;;;;;4934236;28;20222;-73
2021/10/06 12:34:03;;;;;;;1.02;1.02;;;15.80;99.90;;;;;;4929516;28;20226;-73
2021/10/06 12:36:30;;;;;;;0.95;0.90;;;15.90;99.90;;;;;;4930592;28;20821;-74
2021/10/06 12:38:58;;;;;;;1.00;1.00;;;16.00;99.90;;;;;;4928941;28;20226;-73
2021/10/06 12:41:28;;;;;;;1.55;0.88;;;16.00;99.90;;;;;;4931689;28;20709;-72
2021/10/06 12:43:55;;;;;;;1.00;1.00;;;16.00;99.90;;;;;;4930669;28;20510;-75
2021/10/06 12:46:24;;;;;;;1.35;1.00;;;16.00;99.90;;;;;;4931869;28;20687;-72
2021/10/06 12:48:54;;;;;;;0.95;0.95;;;16.00;99.90;;;;;;4927757;28;20238;-77
2021/10/06 12:51:28;;;;;;;1.10;1.05;;;15.80;99.90;;;;;;4932754;28;20225;-76
2021/10/06 12:53:57;;;;;;;1.02;0.93;;;15.70;99.90;;;;;;4929302;28;20226;-76